Time;durP1;ratioP1;P1;durP2;ratioP2;P2;SDS_P1;SDS_P2;PMS_P1;PMS_P2;Temp;Humidity;BMP_temperature;BMP_pressure;BME280_temperature;BME280_humidity;BME280_pressure;Samples;Min_cycle;Max_cycle;Signal;HPM_P1;HPM_P2
2021/12/16 00:06:52;;;;;;;15.87;7.67;;;7.80;97.30;;;;;;5053067;28;20433;-79
2021/12/16 00:09:10;;;;;;;16.73;7.33;;;7.70;97.30;;;;;;5052733;28;20789;-79
2021/12/16 00:35:47;;;;;;;16.20;7.13;;;7.80;97.30;;;;;;5018040;28;20412;-79
2021/12/16 00:38:13;;;;;;;17.57;8.07;;;7.80;97.30;;;;;;4999732;28;20448;-80
2021/12/16 00:40:41;;;;;;;20.90;8.47;;;7.80;97.30;;;;;;4999976;28;20961;-80
2021/12/16 00:43:15;;;;;;;19.47;8.63;;;7.80;97.30;;;;;;4998606;28;20466;-79
2021/12/16 00:56:00;;;;;;;23.20;8.90;;;7.80;97.30;;;;;;5016301;28;20439;-80
2021/12/16 00:58:39;;;;;;;22.00;9.03;;;7.90;97.30;;;;;;4998662;28;20508;-79
2021/12/16 01:01:16;;;;;;;20.47;8.20;;;7.90;97.30;;;;;;4998742;28;20432;-78
2021/12/16 01:03:57;;;;;;;21.00;8.43;;;7.90;97.30;;;;;;4998568;28;20972;-79
2021/12/16 01:07:20;;;;;;;22.43;9.77;;;7.90;97.30;;;;;;4998503;28;20438;-79
2021/12/16 01:34:30;;;;;;;21.43;8.93;;;7.90;97.30;;;;;;5015668;28;20508;-79
2021/12/16 01:40:06;;;;;;;24.90;10.77;;;7.90;97.30;;;;;;5015288;28;20828;-78
2021/12/16 01:48:39;;;;;;;24.33;9.27;;;7.80;97.30;;;;;;5015290;28;20438;-78
2021/12/16 01:50:52;;;;;;;28.43;9.37;;;7.90;97.30;;;;;;5015444;28;20502;-80
2021/12/16 01:53:50;;;;;;;24.20;9.90;;;7.80;97.30;;;;;;5014052;28;20424;-79
2021/12/16 01:56:34;;;;;;;20.53;8.80;;;7.80;97.30;;;;;;5015122;28;20416;-79
2021/12/16 01:59:04;;;;;;;25.40;11.07;;;7.80;97.30;;;;;;4997844;28;20423;-79
2021/12/16 02:01:33;;;;;;;31.03;10.80;;;7.80;97.30;;;;;;4997539;28;20424;-79
2021/12/16 02:04:44;;;;;;;24.90;9.80;;;7.80;97.30;;;;;;5011758;28;20498;-79
2021/12/16 02:07:07;;;;;;;25.97;10.37;;;7.80;97.30;;;;;;5031580;28;20432;-79
2021/12/16 02:09:43;;;;;;;30.77;12.00;;;7.80;97.30;;;;;;5017177;28;20767;-80
2021/12/16 02:31:25;;;;;;;30.77;11.90;;;7.80;97.30;;;;;;4995729;28;20445;-79
2021/12/16 02:36:24;;;;;;;39.43;12.23;;;7.80;97.30;;;;;;4994945;28;20452;-80
2021/12/16 02:38:57;;;;;;;28.20;11.37;;;7.80;97.30;;;;;;5009847;28;20420;-79
2021/12/16 02:41:24;;;;;;;39.90;13.27;;;7.80;97.30;;;;;;4993709;28;20419;-80
2021/12/16 02:49:06;;;;;;;31.27;12.30;;;7.90;97.30;;;;;;4994827;28;20412;-79
2021/12/16 02:51:32;;;;;;;32.70;13.17;;;7.90;97.30;;;;;;4992782;28;20500;-80
2021/12/16 02:54:02;;;;;;;38.20;13.17;;;7.90;97.30;;;;;;5015622;28;20320;-79
2021/12/16 02:56:29;;;;;;;33.47;11.70;;;7.90;97.30;;;;;;5012794;28;20243;-79
2021/12/16 02:58:57;;;;;;;33.40;12.90;;;7.90;97.30;;;;;;5012923;28;20884;-80
2021/12/16 03:01:32;;;;;;;29.50;11.43;;;7.90;97.30;;;;;;5012881;28;20412;-79
2021/12/16 03:04:00;;;;;;;42.20;12.97;;;7.90;97.30;;;;;;5012864;28;20543;-80
2021/12/16 03:06:29;;;;;;;29.87;12.50;;;7.90;97.30;;;;;;5013858;28;20861;-81
2021/12/16 03:08:54;;;;;;;32.43;12.53;;;7.90;97.30;;;;;;5013514;28;20404;-79
2021/12/16 03:19:21;;;;;;;30.30;12.37;;;7.80;97.30;;;;;;4998144;28;20413;-79
2021/12/16 03:21:52;;;;;;;33.50;12.33;;;7.80;97.30;;;;;;5012751;28;20412;-79
2021/12/16 03:27:41;;;;;;;31.73;12.03;;;7.80;97.30;;;;;;5013965;28;20788;-78
2021/12/16 03:30:27;;;;;;;31.00;11.67;;;7.80;97.30;;;;;;5014089;28;20451;-80
2021/12/16 03:35:38;;;;;;;29.87;11.87;;;7.80;97.30;;;;;;5013907;28;20436;-80
2021/12/16 03:38:07;;;;;;;37.30;14.40;;;7.80;97.30;;;;;;5012122;28;20828;-80
2021/12/16 03:40:34;;;;;;;29.07;11.57;;;7.80;97.30;;;;;;5012042;28;20408;-79
2021/12/16 03:43:05;;;;;;;39.07;12.20;;;7.80;97.30;;;;;;5012100;28;20497;-79
2021/12/16 03:48:50;;;;;;;34.87;12.37;;;7.80;97.30;;;;;;5007146;28;20439;-80
2021/12/16 03:51:23;;;;;;;38.37;12.30;;;7.80;97.30;;;;;;5011993;28;20466;-79
2021/12/16 03:53:52;;;;;;;36.63;13.47;;;7.80;97.30;;;;;;5011689;28;20832;-80
2021/12/16 03:56:19;;;;;;;38.60;13.00;;;7.80;97.30;;;;;;5011613;28;20416;-79
2021/12/16 03:58:46;;;;;;;33.77;13.27;;;7.80;97.30;;;;;;5011616;28;20416;-80
2021/12/16 04:01:17;;;;;;;46.10;12.20;;;7.80;97.30;;;;;;5011683;28;20478;-81
2021/12/16 04:03:43;;;;;;;30.10;12.13;;;7.80;97.30;;;;;;5011371;28;20456;-79
2021/12/16 04:06:10;;;;;;;38.13;14.70;;;7.80;97.30;;;;;;5011721;28;20420;-79
2021/12/16 04:08:36;;;;;;;42.17;13.23;;;7.80;97.30;;;;;;5011764;28;20500;-79
2021/12/16 04:11:10;;;;;;;38.07;13.40;;;7.80;97.30;;;;;;5012006;28;20443;-80
2021/12/16 04:13:52;;;;;;;43.77;14.00;;;7.80;97.30;;;;;;5011718;28;20616;-80
2021/12/16 04:16:19;;;;;;;38.53;14.23;;;7.80;97.30;;;;;;5011387;28;20450;-79
2021/12/16 04:18:45;;;;;;;40.37;14.10;;;7.80;97.30;;;;;;5011280;28;20420;-79
2021/12/16 04:21:11;;;;;;;41.80;14.43;;;7.80;97.30;;;;;;5011649;28;20489;-79
2021/12/16 04:23:36;;;;;;;39.77;13.03;;;7.80;97.30;;;;;;5011458;28;20287;-78
2021/12/16 04:26:03;;;;;;;40.57;14.30;;;7.80;97.30;;;;;;5011588;28;20471;-80
2021/12/16 04:28:30;;;;;;;44.83;14.37;;;7.80;97.30;;;;;;5012975;28;20574;-78
2021/12/16 04:30:56;;;;;;;40.23;14.00;;;7.80;97.30;;;;;;5012658;28;20575;-78
2021/12/16 04:33:23;;;;;;;39.33;14.40;;;7.80;97.30;;;;;;5011523;28;20420;-79
2021/12/16 04:35:48;;;;;;;39.63;13.97;;;7.80;97.30;;;;;;5011456;28;20444;-79
2021/12/16 04:38:15;;;;;;;33.83;11.90;;;7.80;97.30;;;;;;5011341;28;20522;-79
2021/12/16 04:40:43;;;;;;;44.97;14.67;;;7.80;97.30;;;;;;5011362;28;20181;-79
2021/12/16 04:43:09;;;;;;;36.53;14.03;;;7.80;97.30;;;;;;5011541;28;20595;-79
2021/12/16 04:45:35;;;;;;;39.60;14.07;;;7.80;97.30;;;;;;5011345;28;20419;-80
2021/12/16 04:48:03;;;;;;;42.13;15.40;;;7.80;97.30;;;;;;5012465;28;20956;-80
2021/12/16 04:50:29;;;;;;;38.63;14.37;;;7.80;97.30;;;;;;5011043;28;20416;-79
2021/12/16 04:52:55;;;;;;;45.20;15.57;;;7.80;97.30;;;;;;5011401;28;20790;-79
2021/12/16 04:55:21;;;;;;;40.70;13.00;;;7.80;97.30;;;;;;5011502;28;20836;-79
2021/12/16 04:57:48;;;;;;;45.57;14.63;;;7.80;97.30;;;;;;5011718;28;20193;-79
2021/12/16 05:00:18;;;;;;;34.60;13.90;;;7.80;97.30;;;;;;5011634;28;20451;-79
2021/12/16 05:02:45;;;;;;;40.53;13.23;;;7.80;97.30;;;;;;5011087;28;20431;-79
2021/12/16 05:05:12;;;;;;;34.30;13.30;;;7.80;97.30;;;;;;5011185;28;20504;-80
2021/12/16 05:07:39;;;;;;;40.40;13.67;;;7.70;97.30;;;;;;5012687;28;20582;-79
2021/12/16 05:10:09;;;;;;;44.43;13.90;;;7.70;97.30;;;;;;5011840;28;20839;-80
2021/12/16 05:12:44;;;;;;;44.33;16.27;;;7.70;97.30;;;;;;5012499;28;20416;-80
2021/12/16 05:15:17;;;;;;;33.57;14.70;;;7.70;97.30;;;;;;5014246;28;20411;-79
2021/12/16 05:17:46;;;;;;;41.43;13.70;;;7.70;97.30;;;;;;5016470;28;20531;-81
2021/12/16 05:20:16;;;;;;;35.17;14.27;;;7.70;97.30;;;;;;5016445;28;20424;-80
2021/12/16 05:27:53;;;;;;;45.40;14.10;;;7.70;97.30;;;;;;5017412;28;20439;-80
2021/12/16 05:30:19;;;;;;;34.33;13.77;;;7.80;97.30;;;;;;5017074;28;20417;-79
2021/12/16 05:32:46;;;;;;;45.70;14.10;;;7.80;97.30;;;;;;5018526;28;20864;-80
2021/12/16 05:35:16;;;;;;;37.73;14.20;;;7.80;97.30;;;;;;5018866;28;20438;-79
2021/12/16 05:37:44;;;;;;;45.90;15.47;;;7.80;97.30;;;;;;5018731;28;20463;-81
2021/12/16 05:40:12;;;;;;;47.13;16.27;;;7.80;97.30;;;;;;5018373;28;20427;-80
2021/12/16 05:42:38;;;;;;;40.80;13.20;;;7.80;97.30;;;;;;5036112;28;20404;-78
2021/12/16 05:45:07;;;;;;;44.30;15.30;;;7.70;97.30;;;;;;5016946;28;20423;-78
2021/12/16 05:47:33;;;;;;;44.03;15.03;;;7.70;97.30;;;;;;5017190;28;20427;-78
2021/12/16 05:49:59;;;;;;;42.73;14.67;;;7.70;97.30;;;;;;5017796;28;20412;-79
2021/12/16 05:52:24;;;;;;;39.37;13.90;;;7.70;97.30;;;;;;5017809;28;20181;-79
2021/12/16 05:54:50;;;;;;;48.37;15.57;;;7.70;97.30;;;;;;5017734;28;20701;-79
2021/12/16 05:57:16;;;;;;;41.13;15.40;;;7.70;97.30;;;;;;5018633;28;20724;-79
2021/12/16 05:59:41;;;;;;;36.37;14.30;;;7.70;97.30;;;;;;5035209;28;20225;-79
2021/12/16 06:02:08;;;;;;;49.17;14.60;;;7.70;97.30;;;;;;5017464;28;20184;-79
2021/12/16 06:04:33;;;;;;;46.60;14.37;;;7.80;97.30;;;;;;5017560;28;20250;-80
2021/12/16 06:07:00;;;;;;;38.47;13.60;;;7.80;97.30;;;;;;5035698;28;20443;-79
2021/12/16 06:09:26;;;;;;;40.00;13.37;;;7.70;97.30;;;;;;5018250;28;20203;-80
2021/12/16 06:11:54;;;;;;;37.00;13.30;;;7.70;97.30;;;;;;5035742;28;20905;-80
2021/12/16 06:14:26;;;;;;;40.20;14.80;;;7.70;97.30;;;;;;5017752;28;20172;-79
2021/12/16 06:27:43;;;;;;;45.80;15.10;;;7.70;97.30;;;;;;5034815;28;20427;-79
2021/12/16 06:30:14;;;;;;;41.40;14.73;;;7.80;97.30;;;;;;5016793;28;20419;-79
2021/12/16 06:32:43;;;;;;;44.23;14.60;;;7.70;97.30;;;;;;5008797;28;21154;-79
2021/12/16 06:35:10;;;;;;;34.90;14.53;;;7.70;97.30;;;;;;5010469;28;20407;-79
2021/12/16 06:37:36;;;;;;;41.43;14.30;;;7.70;97.30;;;;;;5016152;28;20439;-79
2021/12/16 06:40:04;;;;;;;43.20;16.07;;;7.70;97.30;;;;;;5016705;28;20419;-80
2021/12/16 06:42:31;;;;;;;40.40;13.90;;;7.70;97.30;;;;;;5016167;28;20781;-79
2021/12/16 06:45:04;;;;;;;45.60;14.23;;;7.70;97.30;;;;;;5016599;28;20998;-79
2021/12/16 06:47:40;;;;;;;44.70;14.67;;;7.70;97.30;;;;;;5016174;28;20432;-79
2021/12/16 06:50:07;;;;;;;47.57;14.60;;;7.70;97.30;;;;;;5034341;28;20402;-79
2021/12/16 06:52:39;;;;;;;43.13;15.93;;;7.80;97.30;;;;;;5015844;28;20454;-78
2021/12/16 06:55:13;;;;;;;43.20;15.10;;;7.80;97.30;;;;;;5016105;28;21045;-79
2021/12/16 06:57:44;;;;;;;45.80;14.70;;;7.80;97.30;;;;;;5034203;28;20499;-79
2021/12/16 07:00:21;;;;;;;43.03;13.87;;;7.80;97.30;;;;;;5016619;28;20421;-79
2021/12/16 07:05:18;;;;;;;37.03;12.97;;;7.80;97.30;;;;;;5035511;28;20412;-82
2021/12/16 07:07:45;;;;;;;40.30;13.97;;;7.80;97.30;;;;;;5018803;28;20431;-83
2021/12/16 07:10:12;;;;;;;40.20;14.20;;;7.80;97.30;;;;;;5020676;28;20415;-82
2021/12/16 07:12:41;;;;;;;41.27;15.10;;;7.80;97.30;;;;;;5038291;28;20495;-82
2021/12/16 07:15:12;;;;;;;40.43;14.27;;;7.80;97.30;;;;;;5021108;28;20416;-82
2021/12/16 07:17:39;;;;;;;44.60;13.67;;;7.80;97.30;;;;;;5019627;28;20499;-82
2021/12/16 07:20:09;;;;;;;42.07;14.53;;;7.80;97.30;;;;;;5019511;28;20442;-82
2021/12/16 07:22:35;;;;;;;36.87;12.33;;;7.80;97.30;;;;;;5018570;28;20458;-83
2021/12/16 07:25:03;;;;;;;40.07;13.80;;;7.90;97.30;;;;;;5019010;28;20431;-82
2021/12/16 07:27:29;;;;;;;46.03;14.80;;;7.90;97.30;;;;;;5018511;28;20454;-82
2021/12/16 07:29:55;;;;;;;36.43;13.80;;;7.90;97.30;;;;;;5018641;28;20439;-82
2021/12/16 07:32:21;;;;;;;38.27;13.00;;;7.90;97.30;;;;;;5020719;28;20415;-82
2021/12/16 07:34:46;;;;;;;38.73;13.57;;;7.90;97.30;;;;;;5036545;28;20173;-83
2021/12/16 07:37:12;;;;;;;40.00;13.50;;;7.90;97.30;;;;;;5017077;28;20286;-82
2021/12/16 07:39:40;;;;;;;37.97;12.83;;;7.90;97.30;;;;;;5016164;28;20180;-83
2021/12/16 07:42:11;;;;;;;54.40;14.47;;;7.90;97.30;;;;;;5016686;28;20184;-82
2021/12/16 07:44:37;;;;;;;43.13;15.93;;;7.90;97.30;;;;;;5016152;28;20898;-82
2021/12/16 07:47:09;;;;;;;40.03;13.73;;;7.90;97.30;;;;;;5016566;28;20470;-82
2021/12/16 07:49:40;;;;;;;38.60;13.10;;;7.90;97.30;;;;;;5017401;28;20979;-82
2021/12/16 07:52:09;;;;;;;37.20;13.87;;;7.90;97.30;;;;;;5017137;28;20404;-82
2021/12/16 07:54:38;;;;;;;37.67;12.93;;;8.00;97.30;;;;;;5017470;28;20518;-82
2021/12/16 07:57:04;;;;;;;38.97;13.20;;;8.00;97.30;;;;;;5034455;28;20443;-82
2021/12/16 07:59:32;;;;;;;39.17;13.57;;;8.00;97.30;;;;;;5016510;28;20462;-83
2021/12/16 08:01:59;;;;;;;43.33;14.63;;;8.00;97.30;;;;;;5016530;28;20446;-82
2021/12/16 08:04:29;;;;;;;48.93;14.27;;;8.00;97.30;;;;;;5016581;28;20459;-82
2021/12/16 08:07:00;;;;;;;40.03;13.97;;;8.00;97.30;;;;;;5016521;28;20435;-82
2021/12/16 08:09:26;;;;;;;39.93;13.30;;;8.00;97.30;;;;;;5017357;28;20424;-82
2021/12/16 08:11:52;;;;;;;42.90;15.93;;;8.00;97.30;;;;;;5016308;28;20412;-82
2021/12/16 08:14:18;;;;;;;39.00;14.03;;;8.00;97.30;;;;;;5016379;28;20184;-82
2021/12/16 08:16:45;;;;;;;36.97;13.53;;;8.00;97.30;;;;;;5016256;28;20447;-83
2021/12/16 08:19:18;;;;;;;41.67;13.77;;;8.00;97.30;;;;;;5034085;28;20939;-83
2021/12/16 08:21:44;;;;;;;37.13;13.90;;;8.00;97.30;;;;;;5016541;28;20415;-82
2021/12/16 08:24:16;;;;;;;36.70;14.40;;;8.00;97.30;;;;;;5033868;28;20974;-82
2021/12/16 08:26:56;;;;;;;35.80;13.03;;;8.00;97.30;;;;;;5017838;28;20287;-83
2021/12/16 08:29:24;;;;;;;42.60;14.53;;;8.00;97.30;;;;;;5015910;28;20415;-82
2021/12/16 08:31:56;;;;;;;44.00;14.97;;;7.90;97.30;;;;;;5017231;28;20514;-81
2021/12/16 08:34:33;;;;;;;44.70;14.17;;;8.00;97.30;;;;;;5017895;28;20415;-82
2021/12/16 08:37:04;;;;;;;37.87;13.13;;;8.00;97.30;;;;;;5016476;28;20499;-83
2021/12/16 08:39:35;;;;;;;45.93;14.13;;;8.00;97.30;;;;;;5017156;28;20419;-82
2021/12/16 08:42:04;;;;;;;37.20;13.60;;;8.00;97.30;;;;;;5017586;28;20469;-80
2021/12/16 08:44:30;;;;;;;39.63;13.37;;;8.00;97.30;;;;;;5034261;28;20459;-81
2021/12/16 08:47:03;;;;;;;38.23;13.50;;;8.00;97.30;;;;;;5017334;28;20435;-82
2021/12/16 08:49:29;;;;;;;40.63;14.30;;;8.00;97.30;;;;;;5015588;28;20451;-80
2021/12/16 08:52:05;;;;;;;44.53;14.10;;;8.00;97.30;;;;;;5021307;28;20422;-83
2021/12/16 08:54:36;;;;;;;41.60;12.60;;;8.00;97.30;;;;;;5018914;28;20308;-82
2021/12/16 08:57:05;;;;;;;51.30;16.70;;;8.00;97.30;;;;;;5018057;28;20455;-80
2021/12/16 08:59:34;;;;;;;40.63;15.00;;;8.00;97.30;;;;;;5014133;28;20727;-81
2021/12/16 09:02:07;;;;;;;49.77;14.63;;;8.00;97.30;;;;;;5014019;28;20419;-79
2021/12/16 09:04:36;;;;;;;42.90;15.10;;;8.00;97.30;;;;;;5011852;28;20457;-79
2021/12/16 09:07:05;;;;;;;45.30;14.83;;;8.10;97.30;;;;;;4997076;28;20930;-82
2021/12/16 09:09:35;;;;;;;53.10;15.80;;;8.10;97.30;;;;;;5029812;28;20416;-80
2021/12/16 09:12:10;;;;;;;44.50;15.07;;;8.10;97.30;;;;;;5020176;28;21001;-81
2021/12/16 09:14:42;;;;;;;56.17;15.80;;;8.10;97.30;;;;;;5001311;28;20412;-82
2021/12/16 09:17:27;;;;;;;48.07;14.90;;;8.20;97.30;;;;;;5000680;28;20444;-84
2021/12/16 09:20:04;;;;;;;42.50;15.03;;;8.20;97.30;;;;;;5014855;28;20918;-84
2021/12/16 09:22:33;;;;;;;49.77;13.83;;;8.20;97.30;;;;;;5017286;28;20412;-80
2021/12/16 09:25:00;;;;;;;42.70;13.60;;;8.20;97.30;;;;;;5018705;28;20459;-80
2021/12/16 09:27:29;;;;;;;39.20;13.40;;;8.20;97.30;;;;;;5018301;28;20799;-81
2021/12/16 09:29:57;;;;;;;45.60;14.67;;;8.20;97.30;;;;;;5016071;28;20951;-80
2021/12/16 09:32:26;;;;;;;48.70;15.87;;;8.20;97.30;;;;;;5015126;28;20417;-80
2021/12/16 09:34:53;;;;;;;47.00;13.07;;;8.10;97.30;;;;;;5014903;28;20424;-80
2021/12/16 09:37:22;;;;;;;46.30;15.40;;;8.00;97.30;;;;;;5016237;28;20455;-80
2021/12/16 09:39:48;;;;;;;46.43;16.50;;;8.10;97.30;;;;;;5013041;28;20440;-80
2021/12/16 09:42:15;;;;;;;49.93;14.37;;;8.00;97.30;;;;;;4999157;28;20417;-80
2021/12/16 09:44:43;;;;;;;46.83;12.70;;;8.00;97.30;;;;;;4996325;28;20219;-79
2021/12/16 09:47:14;;;;;;;57.03;14.83;;;8.00;97.30;;;;;;5005947;28;20446;-81
2021/12/16 09:49:42;;;;;;;37.87;13.30;;;8.00;97.30;;;;;;4999747;28;20412;-79
2021/12/16 09:52:12;;;;;;;44.03;15.03;;;8.00;97.30;;;;;;4997687;28;20470;-78
2021/12/16 09:54:42;;;;;;;43.90;14.63;;;8.00;97.30;;;;;;5009554;28;20474;-80
2021/12/16 09:57:11;;;;;;;48.50;13.30;;;8.00;97.30;;;;;;5038625;28;20964;-80
2021/12/16 09:59:37;;;;;;;40.17;13.40;;;8.00;97.30;;;;;;5038089;28;20438;-81
2021/12/16 10:02:12;;;;;;;43.77;13.97;;;8.00;97.30;;;;;;5036634;28;20788;-79
2021/12/16 10:04:40;;;;;;;38.87;13.50;;;8.00;97.30;;;;;;5019752;28;20446;-80
2021/12/16 10:07:14;;;;;;;41.20;13.30;;;8.00;97.30;;;;;;5018175;28;20802;-80
2021/12/16 10:09:41;;;;;;;45.97;15.23;;;8.00;97.30;;;;;;5021967;28;20406;-81
2021/12/16 10:12:13;;;;;;;43.93;15.40;;;8.10;97.30;;;;;;5040895;28;20419;-81
2021/12/16 10:17:24;;;;;;;38.50;12.57;;;8.00;97.30;;;;;;5036473;28;20541;-81
2021/12/16 10:20:14;;;;;;;55.37;18.03;;;8.10;97.30;;;;;;5020048;28;20411;-81
2021/12/16 10:22:45;;;;;;;38.27;13.20;;;8.10;97.30;;;;;;5020046;28;20400;-81
2021/12/16 10:25:22;;;;;;;50.93;16.90;;;8.10;97.30;;;;;;5019748;28;20416;-80
2021/12/16 10:28:04;;;;;;;54.33;14.83;;;8.20;97.30;;;;;;5015858;28;20519;-79
2021/12/16 10:30:48;;;;;;;45.00;15.93;;;8.20;97.30;;;;;;5018451;28;20430;-79
2021/12/16 10:33:26;;;;;;;45.60;14.60;;;8.20;97.30;;;;;;5036095;28;20446;-79
2021/12/16 10:36:14;;;;;;;44.93;14.07;;;8.20;97.30;;;;;;5018652;28;20514;-79
2021/12/16 10:38:55;;;;;;;48.47;13.53;;;8.20;97.30;;;;;;5018400;28;20423;-79
2021/12/16 10:41:28;;;;;;;47.67;13.40;;;8.20;97.30;;;;;;5018771;28;21015;-79
2021/12/16 10:44:04;;;;;;;62.37;14.87;;;8.30;97.30;;;;;;5018780;28;20534;-79
2021/12/16 10:46:37;;;;;;;41.63;14.53;;;8.30;97.30;;;;;;5018629;28;20427;-79
2021/12/16 10:49:25;;;;;;;47.10;14.63;;;8.30;97.30;;;;;;5019218;28;20419;-79
2021/12/16 10:51:59;;;;;;;53.73;16.40;;;8.30;97.30;;;;;;5017711;28;20497;-79
2021/12/16 10:54:38;;;;;;;43.90;15.50;;;8.30;97.30;;;;;;5017834;28;20470;-79
2021/12/16 10:57:14;;;;;;;46.23;14.27;;;8.30;97.30;;;;;;5017654;28;20489;-78
2021/12/16 10:59:46;;;;;;;41.53;13.30;;;8.40;97.30;;;;;;5015962;28;20498;-79
2021/12/16 11:02:27;;;;;;;44.20;14.63;;;8.40;97.30;;;;;;5015784;28;20925;-78
2021/12/16 11:05:04;;;;;;;47.40;15.63;;;8.40;97.30;;;;;;5015802;28;20459;-78
2021/12/16 11:07:37;;;;;;;50.93;15.17;;;8.40;97.30;;;;;;5015784;28;20439;-78
2021/12/16 11:10:18;;;;;;;47.00;14.20;;;8.40;97.30;;;;;;5016512;28;20480;-78
2021/12/16 11:12:48;;;;;;;41.93;13.87;;;8.40;97.30;;;;;;5022402;28;20415;-80
2021/12/16 11:15:29;;;;;;;49.43;14.97;;;8.40;97.30;;;;;;5021497;28;20442;-80
2021/12/16 11:18:02;;;;;;;42.13;13.53;;;8.40;97.30;;;;;;5020598;28;20439;-80
2021/12/16 11:21:06;;;;;;;44.60;12.93;;;8.40;97.30;;;;;;5020662;28;20426;-80
2021/12/16 11:23:41;;;;;;;46.90;14.70;;;8.40;97.30;;;;;;4955981;28;20466;-80
2021/12/16 11:26:19;;;;;;;55.37;15.57;;;8.40;97.30;;;;;;5007081;28;20410;-80
2021/12/16 11:28:48;;;;;;;43.70;14.50;;;8.40;97.30;;;;;;5034101;28;20407;-80
2021/12/16 11:31:23;;;;;;;42.43;13.40;;;8.40;97.30;;;;;;5016245;28;20458;-81
2021/12/16 11:34:01;;;;;;;48.00;15.10;;;8.40;97.30;;;;;;5017544;28;20499;-80
2021/12/16 11:36:40;;;;;;;48.97;16.50;;;8.40;97.30;;;;;;5034538;28;20494;-79
2021/12/16 11:39:18;;;;;;;43.40;13.80;;;8.40;97.30;;;;;;5013901;28;20431;-80
2021/12/16 11:41:51;;;;;;;43.93;15.27;;;8.50;97.30;;;;;;5014567;28;20415;-81
2021/12/16 11:44:21;;;;;;;49.63;15.10;;;8.50;97.30;;;;;;5014619;28;20459;-80
2021/12/16 11:46:55;;;;;;;53.97;15.37;;;8.50;97.30;;;;;;5018320;28;20827;-80
2021/12/16 11:49:22;;;;;;;49.60;15.80;;;8.50;97.30;;;;;;5017309;28;20415;-80
2021/12/16 11:51:58;;;;;;;47.73;15.70;;;8.50;97.30;;;;;;5035465;28;20411;-80
2021/12/16 11:54:36;;;;;;;58.33;15.47;;;8.50;97.30;;;;;;5017314;28;20467;-81
2021/12/16 11:57:10;;;;;;;53.90;16.10;;;8.50;97.30;;;;;;5016220;28;20493;-80
2021/12/16 11:59:43;;;;;;;55.63;16.57;;;8.50;97.30;;;;;;5012454;28;20419;-80
2021/12/16 12:02:32;;;;;;;49.13;17.40;;;8.50;97.30;;;;;;4996973;28;20519;-80
2021/12/16 12:05:16;;;;;;;51.83;14.57;;;8.50;97.30;;;;;;4997089;28;20510;-80
2021/12/16 12:07:44;;;;;;;42.00;14.27;;;8.60;97.30;;;;;;5016822;28;21187;-81
2021/12/16 12:10:10;;;;;;;43.00;14.10;;;8.50;97.30;;;;;;5035147;28;20435;-80
2021/12/16 12:12:46;;;;;;;48.47;15.80;;;8.50;97.30;;;;;;5017095;28;20943;-81
2021/12/16 12:15:16;;;;;;;45.27;14.87;;;8.50;97.30;;;;;;5017182;28;20549;-81
2021/12/16 12:17:54;;;;;;;52.47;15.37;;;8.50;97.30;;;;;;5017027;28;20447;-80
2021/12/16 12:20:31;;;;;;;49.47;15.87;;;8.50;97.30;;;;;;5019980;28;20774;-80
2021/12/16 12:22:58;;;;;;;53.87;14.73;;;8.50;97.30;;;;;;5034707;28;20426;-81
2021/12/16 12:25:23;;;;;;;47.97;15.20;;;8.50;97.30;;;;;;5024335;28;20419;-80
2021/12/16 12:27:49;;;;;;;48.97;14.60;;;8.50;97.30;;;;;;5016593;28;20427;-81
2021/12/16 12:30:16;;;;;;;46.97;15.90;;;8.50;97.30;;;;;;5017620;28;20177;-80
2021/12/16 12:32:45;;;;;;;52.30;16.73;;;8.50;97.30;;;;;;5017238;28;20419;-80
2021/12/16 12:35:13;;;;;;;52.47;15.10;;;8.50;97.30;;;;;;5017230;28;20573;-80
2021/12/16 12:37:46;;;;;;;40.93;12.97;;;8.50;97.30;;;;;;5016310;28;20489;-81
2021/12/16 12:40:14;;;;;;;50.87;14.97;;;8.50;97.30;;;;;;5015771;28;20473;-80
2021/12/16 12:42:42;;;;;;;48.73;13.20;;;8.50;97.30;;;;;;5016065;28;20411;-80
2021/12/16 12:45:10;;;;;;;43.63;13.63;;;8.60;97.30;;;;;;5017277;28;21080;-80
2021/12/16 12:47:38;;;;;;;50.33;16.03;;;8.60;97.30;;;;;;5017511;28;20435;-80
2021/12/16 12:50:12;;;;;;;53.07;14.47;;;8.60;97.30;;;;;;5015541;28;20423;-81
2021/12/16 12:52:38;;;;;;;48.07;15.83;;;8.60;97.30;;;;;;5018929;28;20998;-80
2021/12/16 12:55:17;;;;;;;46.00;15.37;;;8.60;97.30;;;;;;5018528;28;20475;-80
2021/12/16 12:57:45;;;;;;;62.90;18.13;;;8.60;97.30;;;;;;5018861;28;20814;-80
2021/12/16 13:00:28;;;;;;;44.33;14.43;;;8.60;97.30;;;;;;5018790;28;20808;-80
2021/12/16 13:02:59;;;;;;;47.37;14.33;;;8.60;97.30;;;;;;5018826;28;20643;-80
2021/12/16 13:05:25;;;;;;;50.03;14.57;;;8.60;97.30;;;;;;5035667;28;20480;-80
2021/12/16 13:07:58;;;;;;;57.97;14.80;;;8.70;97.30;;;;;;5017656;28;20446;-80
2021/12/16 13:10:38;;;;;;;57.47;15.63;;;8.70;97.30;;;;;;5017387;28;20203;-80
2021/12/16 13:13:30;;;;;;;45.50;13.50;;;8.80;97.30;;;;;;5016711;28;20415;-80
2021/12/16 13:16:20;;;;;;;51.10;13.97;;;8.80;97.30;;;;;;5016728;28;20414;-80
2021/12/16 13:27:37;;;;;;;42.47;15.50;;;9.00;97.30;;;;;;5055587;28;20502;-80
2021/12/16 13:32:47;;;;;;;38.17;13.90;;;9.10;97.30;;;;;;5015824;28;20932;-80
2021/12/16 13:35:33;;;;;;;39.97;13.47;;;9.10;97.30;;;;;;4999130;28;20408;-81
2021/12/16 13:38:05;;;;;;;38.40;14.27;;;9.10;97.30;;;;;;5004304;28;20507;-81
2021/12/16 13:40:33;;;;;;;46.23;14.53;;;9.10;97.30;;;;;;5038406;28;20953;-81
2021/12/16 13:43:10;;;;;;;42.50;12.50;;;9.10;97.30;;;;;;5019641;28;20419;-81
2021/12/16 13:45:46;;;;;;;36.53;13.23;;;9.10;97.30;;;;;;5017987;28;20422;-80
2021/12/16 14:02:49;;;;;;;48.03;15.10;;;9.30;97.30;;;;;;4997887;28;21036;-81
2021/12/16 14:05:40;;;;;;;47.50;13.47;;;9.30;97.30;;;;;;4980354;28;20428;-80
2021/12/16 14:08:10;;;;;;;32.63;11.93;;;9.30;97.30;;;;;;4982844;28;20478;-80
2021/12/16 14:10:36;;;;;;;39.50;13.40;;;9.30;97.30;;;;;;4999566;28;20456;-80
2021/12/16 14:17:07;;;;;;;45.50;13.97;;;9.40;97.30;;;;;;5016800;28;20786;-80
2021/12/16 14:46:45;;;;;;;28.07;12.20;;;9.20;97.30;;;;;;5016106;28;20518;-80
2021/12/16 14:49:11;;;;;;;39.47;12.67;;;9.10;97.30;;;;;;4998829;28;20419;-80
2021/12/16 14:51:37;;;;;;;45.40;16.00;;;9.10;97.30;;;;;;4998388;28;20427;-80
2021/12/16 14:54:03;;;;;;;36.60;14.10;;;9.10;97.30;;;;;;4999969;28;20225;-80
2021/12/16 14:56:36;;;;;;;36.97;15.37;;;9.10;97.30;;;;;;5014395;28;20440;-80
2021/12/16 14:59:13;;;;;;;38.30;12.77;;;9.10;97.30;;;;;;5005862;28;20452;-80
2021/12/16 15:01:43;;;;;;;39.50;12.90;;;9.10;97.30;;;;;;4995167;28;20452;-80
2021/12/16 15:04:15;;;;;;;37.57;13.27;;;9.00;97.30;;;;;;4995100;28;20802;-80
2021/12/16 15:06:56;;;;;;;43.90;14.07;;;9.10;97.30;;;;;;4994379;28;20448;-80
2021/12/16 15:09:28;;;;;;;43.20;13.07;;;9.00;97.30;;;;;;5006513;28;20434;-80
2021/12/16 15:12:11;;;;;;;41.33;14.70;;;9.00;97.30;;;;;;5015073;28;20447;-80
2021/12/16 15:39:52;;;;;;;35.43;12.57;;;9.30;97.30;;;;;;5016668;28;20582;-80
2021/12/16 15:45:11;;;;;;;26.50;10.47;;;9.30;97.30;;;;;;5014139;28;20478;-80
2021/12/16 15:47:42;;;;;;;26.73;10.00;;;9.30;97.30;;;;;;5013548;28;20812;-80
2021/12/16 15:50:10;;;;;;;20.60;8.27;;;9.30;97.30;;;;;;5011390;28;20511;-80
2021/12/16 15:52:44;;;;;;;18.93;6.73;;;9.30;97.30;;;;;;5015317;28;20454;-80
2021/12/16 15:55:19;;;;;;;14.87;6.87;;;9.20;97.30;;;;;;5031525;28;21031;-80
2021/12/16 15:57:45;;;;;;;22.63;7.80;;;9.20;97.30;;;;;;5021814;28;20466;-80
2021/12/16 16:00:19;;;;;;;20.60;7.97;;;9.20;97.30;;;;;;5021173;28;20490;-80
2021/12/16 16:02:45;;;;;;;21.37;8.20;;;9.20;97.30;;;;;;5020430;28;20180;-80
2021/12/16 16:05:11;;;;;;;16.90;7.23;;;9.10;97.30;;;;;;5018793;28;20463;-80
2021/12/16 16:07:39;;;;;;;15.80;7.90;;;9.10;97.30;;;;;;5020911;28;20697;-81
2021/12/16 16:10:07;;;;;;;20.57;9.00;;;9.10;97.30;;;;;;5020434;28;20463;-80
2021/12/16 16:12:33;;;;;;;32.60;13.83;;;9.10;97.30;;;;;;5015758;28;20505;-79
2021/12/16 16:15:16;;;;;;;17.83;8.20;;;9.10;97.30;;;;;;5033134;28;20423;-79
2021/12/16 16:20:48;;;;;;;27.67;11.13;;;9.10;97.30;;;;;;4996966;28;20797;-79
2021/12/16 16:23:16;;;;;;;53.63;21.80;;;9.10;97.30;;;;;;5018384;28;20516;-79
2021/12/16 16:25:42;;;;;;;28.00;12.37;;;9.10;97.30;;;;;;5017229;28;20411;-79
2021/12/16 16:28:11;;;;;;;24.63;7.90;;;9.00;97.30;;;;;;5017410;28;20442;-79
2021/12/16 16:30:38;;;;;;;17.17;8.23;;;9.00;97.30;;;;;;5017184;28;20454;-79
2021/12/16 16:33:16;;;;;;;27.13;11.57;;;9.00;97.30;;;;;;5016107;28;20527;-79
2021/12/16 16:35:55;;;;;;;20.40;9.30;;;9.00;97.30;;;;;;5015234;28;20411;-78
2021/12/16 16:38:25;;;;;;;15.03;6.67;;;8.90;97.30;;;;;;5014851;28;20446;-79
2021/12/16 16:40:54;;;;;;;19.47;7.83;;;8.90;97.30;;;;;;5015843;28;20411;-78
2021/12/16 16:43:36;;;;;;;16.60;7.40;;;8.90;97.30;;;;;;5014107;28;20459;-79
2021/12/16 16:46:13;;;;;;;18.23;7.20;;;8.90;97.30;;;;;;5032672;28;20446;-79